Time;durP1;ratioP1;P1;durP2;ratioP2;P2;SDS_P1;SDS_P2;PMS_P1;PMS_P2;Temp;Humidity;BMP_temperature;BMP_pressure;BME280_temperature;BME280_humidity;BME280_pressure;Samples;Min_cycle;Max_cycle;Signal;HPM_P1;HPM_P2
2023/11/29 00:00:08;;;;;;;0.10;0.10;;;;;;;3.16;92.45;99579.31;4840344;29;20037;-76
2023/11/29 00:02:34;;;;;;;0.10;0.10;;;;;;;3.26;92.28;99584.91;4824689;29;20030;-75
2023/11/29 00:05:03;;;;;;;0.00;0.00;;;;;;;3.36;92.01;99599.69;4843457;29;20033;-75
2023/11/29 00:07:29;;;;;;;0.10;0.10;;;;;;;3.35;91.79;99596.19;4829858;29;20034;-75
2023/11/29 00:09:54;;;;;;;0.10;0.10;;;;;;;3.30;91.50;99580.69;4829403;29;20034;-75
2023/11/29 00:12:19;;;;;;;0.00;0.00;;;;;;;3.40;90.34;99584.66;4831133;29;20120;-75
2023/11/29 00:14:47;;;;;;;0.10;0.10;;;;;;;3.35;90.71;99571.06;4840607;29;20109;-75
2023/11/29 00:17:12;;;;;;;0.10;0.10;;;;;;;3.45;90.03;99576.66;4831510;29;20037;-76
2023/11/29 00:19:41;;;;;;;0.10;0.10;;;;;;;3.60;90.25;99585.06;4839284;29;20025;-75
2023/11/29 00:22:07;;;;;;;0.00;0.00;;;;;;;3.60;90.06;99566.13;4843620;29;20024;-75
2023/11/29 00:24:32;;;;;;;0.05;0.05;;;;;;;3.48;89.51;99570.75;4847214;29;20405;-76
2023/11/29 00:26:58;;;;;;;0.00;0.00;;;;;;;3.35;89.08;99560.25;4815435;29;20404;-75
2023/11/29 00:29:24;;;;;;;0.00;0.00;;;;;;;3.39;89.45;99572.19;4843762;29;20430;-75
2023/11/29 00:31:50;;;;;;;0.00;0.00;;;;;;;3.32;89.31;99572.34;4826795;29;20473;-75
2023/11/29 00:34:15;;;;;;;0.00;0.00;;;;;;;3.25;90.07;99563.53;4814848;29;20143;-75
2023/11/29 00:36:51;;;;;;;;;;;;;;;;;;;;;
2023/11/29 00:39:18;;;;;;;0.00;0.00;;;;;;;2.91;90.29;99544.47;4837957;29;20751;-74
2023/11/29 00:41:44;;;;;;;0.00;0.00;;;;;;;2.94;90.56;99561.00;4816998;29;20495;-75
2023/11/29 00:44:09;;;;;;;0.10;0.10;;;;;;;2.89;91.07;99552.81;4835580;29;20038;-75
2023/11/29 00:46:37;;;;;;;0.00;0.00;;;;;;;2.99;91.03;99567.59;4843186;29;20017;-75
2023/11/29 00:49:02;;;;;;;0.00;0.00;;;;;;;2.90;91.06;99549.03;4835271;29;20124;-75
2023/11/29 00:51:28;;;;;;;0.00;0.00;;;;;;;2.88;90.68;99548.47;4819612;29;20128;-75
2023/11/29 00:53:53;;;;;;;0.00;0.00;;;;;;;2.72;91.20;99533.00;4848664;29;20766;-75
2023/11/29 00:56:19;;;;;;;0.00;0.00;;;;;;;2.69;91.23;99536.97;4839690;29;20038;-75
2023/11/29 00:58:44;;;;;;;0.00;0.00;;;;;;;2.77;91.11;99551.97;4837159;29;20556;-76
2023/11/29 01:01:10;;;;;;;0.10;0.10;;;;;;;2.63;91.58;99527.13;4856350;29;20034;-75
2023/11/29 01:03:35;;;;;;;0.00;0.00;;;;;;;2.58;91.09;99513.50;4846574;29;20485;-75
2023/11/29 01:06:01;;;;;;;0.00;0.00;;;;;;;2.65;91.02;99521.50;4827420;29;20079;-75
2023/11/29 01:08:47;;;;;;;0.00;0.00;;;;;;;2.83;91.11;99531.31;4843552;29;20042;-76
2023/11/29 01:11:12;;;;;;;0.00;0.00;;;;;;;2.89;91.98;99528.50;4839040;29;20042;-75
2023/11/29 01:13:38;;;;;;;0.00;0.00;;;;;;;2.84;91.07;99522.97;4841044;29;20030;-75
2023/11/29 01:16:04;;;;;;;0.03;0.03;;;;;;;2.75;90.72;99500.94;4827910;29;20044;-75
2023/11/29 01:18:32;;;;;;;0.00;0.00;;;;;;;2.81;91.66;99518.06;4839633;29;20028;-74
2023/11/29 01:20:58;;;;;;;0.00;0.00;;;;;;;2.79;90.97;99501.28;4848924;29;20065;-76
2023/11/29 01:23:23;;;;;;;0.10;0.10;;;;;;;2.94;92.12;99508.88;4828876;29;20077;-77
2023/11/29 01:25:49;;;;;;;0.00;0.00;;;;;;;2.99;91.80;99502.75;4844126;29;20053;-76
2023/11/29 01:28:14;;;;;;;0.00;0.00;;;;;;;3.15;91.18;99520.91;4836084;29;20077;-75
2023/11/29 01:30:40;;;;;;;0.00;0.00;;;;;;;3.08;91.44;99490.50;4843304;29;20073;-76
2023/11/29 01:33:05;;;;;;;0.00;0.00;;;;;;;3.16;91.02;99498.25;4850328;29;20485;-76
2023/11/29 01:35:31;;;;;;;0.10;0.10;;;;;;;3.17;90.95;99493.66;4820743;29;20497;-75
2023/11/29 01:37:56;;;;;;;0.00;0.00;;;;;;;3.18;90.62;99504.22;4823745;29;20026;-75
2023/11/29 01:40:22;;;;;;;0.00;0.00;;;;;;;3.08;90.80;99502.16;4833999;29;20034;-74
2023/11/29 01:42:47;;;;;;;0.00;0.00;;;;;;;3.02;91.60;99502.28;4828448;29;20756;-74
2023/11/29 01:45:13;;;;;;;0.00;0.00;;;;;;;2.87;91.76;99500.91;4843217;29;20025;-75
2023/11/29 01:47:39;;;;;;;0.00;0.00;;;;;;;2.79;92.12;99485.91;4823573;29;20086;-74
2023/11/29 01:50:05;;;;;;;0.00;0.00;;;;;;;2.91;92.10;99507.47;4839637;29;20862;-75
2023/11/29 01:52:33;;;;;;;0.00;0.00;;;;;;;2.91;91.69;99499.38;4843280;29;20553;-75
2023/11/29 01:55:00;;;;;;;0.00;0.00;;;;;;;2.87;91.40;99479.28;4840846;29;20449;-75
2023/11/29 01:57:25;;;;;;;0.00;0.00;;;;;;;2.99;91.00;99483.84;4835588;29;20060;-75
2023/11/29 01:59:51;;;;;;;0.10;0.10;;;;;;;2.97;90.90;99471.41;4851948;29;21709;-76
2023/11/29 02:02:18;;;;;;;0.00;0.00;;;;;;;3.14;91.11;99481.47;4826793;29;20034;-77
2023/11/29 02:04:45;;;;;;;0.00;0.00;;;;;;;3.11;90.56;99484.63;4838921;29;20470;-76
2023/11/29 02:07:12;;;;;;;0.00;0.00;;;;;;;3.15;90.33;99483.09;4844071;29;20089;-76
2023/11/29 02:09:46;;;;;;;0.00;0.00;;;;;;;3.17;90.78;99478.28;4835843;29;20026;-76
2023/11/29 02:12:12;;;;;;;0.00;0.00;;;;;;;3.22;89.88;99474.84;4844691;29;20060;-75
2023/11/29 02:14:45;;;;;;;0.00;0.00;;;;;;;3.29;90.21;99480.94;4841503;29;20042;-75
2023/11/29 02:17:10;;;;;;;0.00;0.00;;;;;;;3.30;89.57;99480.69;4838181;29;20107;-76
2023/11/29 02:19:36;;;;;;;0.00;0.00;;;;;;;3.26;89.25;99471.44;4837256;29;20030;-76
2023/11/29 02:22:02;;;;;;;0.10;0.10;;;;;;;3.21;89.64;99455.09;4830239;29;20098;-75
2023/11/29 02:24:43;;;;;;;0.00;0.00;;;;;;;3.23;89.01;99461.09;4834773;29;20045;-74
2023/11/29 02:27:12;;;;;;;0.00;0.00;;;;;;;3.32;89.54;99465.06;4849491;29;21197;-75
2023/11/29 02:29:38;;;;;;;0.00;0.00;;;;;;;3.37;90.05;99460.81;4871637;29;20055;-75
2023/11/29 02:32:05;;;;;;;0.10;0.10;;;;;;;3.37;90.21;99466.22;4837177;29;20435;-75
2023/11/29 02:34:30;;;;;;;0.00;0.00;;;;;;;3.36;90.11;99462.72;4835536;29;20128;-75
2023/11/29 02:36:56;;;;;;;0.00;0.00;;;;;;;3.41;90.39;99456.56;4843262;29;20183;-75
2023/11/29 02:39:21;;;;;;;0.00;0.00;;;;;;;3.45;89.09;99463.94;4840411;29;20037;-75
2023/11/29 02:41:46;;;;;;;0.00;0.00;;;;;;;3.46;88.63;99464.75;4844072;29;20566;-75
2023/11/29 02:44:12;;;;;;;0.00;0.00;;;;;;;3.50;88.61;99474.03;4831931;29;20029;-74
2023/11/29 02:46:37;;;;;;;0.00;0.00;;;;;;;3.42;89.25;99464.44;4859268;29;20033;-75
2023/11/29 02:49:03;;;;;;;0.00;0.00;;;;;;;3.31;89.08;99458.03;4835772;29;20034;-75
2023/11/29 02:51:29;;;;;;;0.00;0.00;;;;;;;3.22;88.93;99454.06;4829285;29;20365;-76
2023/11/29 02:53:55;;;;;;;0.10;0.10;;;;;;;3.31;88.88;99468.84;4843258;29;20040;-75
2023/11/29 02:56:20;;;;;;;0.10;0.10;;;;;;;3.27;88.80;99456.88;4868187;29;20072;-76
2023/11/29 02:58:46;;;;;;;0.00;0.00;;;;;;;3.34;89.21;99466.69;4845430;29;20081;-75
2023/11/29 03:01:13;;;;;;;0.00;0.00;;;;;;;3.28;88.99;99463.09;4867282;29;20089;-75
2023/11/29 03:03:38;;;;;;;0.00;0.00;;;;;;;3.15;88.69;99450.69;4814644;29;20104;-76
2023/11/29 03:06:07;;;;;;;0.00;0.00;;;;;;;2.94;88.21;99425.97;4850914;29;20037;-75
2023/11/29 03:08:32;;;;;;;0.00;0.00;;;;;;;2.92;88.11;99432.66;4858207;29;20034;-75
2023/11/29 03:10:58;;;;;;;0.00;0.00;;;;;;;3.11;89.28;99452.22;4840986;29;20060;-76
2023/11/29 03:13:26;;;;;;;0.00;0.00;;;;;;;3.01;89.23;99420.44;4864058;29;20029;-75
2023/11/29 03:15:52;;;;;;;0.00;0.00;;;;;;;2.89;88.79;99423.19;4844096;29;20029;-76
2023/11/29 03:18:19;;;;;;;0.00;0.00;;;;;;;2.86;88.66;99428.22;4847824;29;20040;-75
2023/11/29 03:20:45;;;;;;;0.00;0.00;;;;;;;2.84;88.80;99449.25;4849940;29;20040;-76
2023/11/29 03:23:11;;;;;;;0.10;0.10;;;;;;;2.65;89.48;99433.22;4823890;29;20041;-74
2023/11/29 03:25:36;;;;;;;0.10;0.10;;;;;;;2.48;89.58;99427.72;4844976;29;20465;-74
2023/11/29 03:28:02;;;;;;;0.10;0.10;;;;;;;2.35;89.52;99422.59;4841604;29;20053;-74
2023/11/29 03:30:27;;;;;;;0.00;0.00;;;;;;;2.31;90.78;99432.19;4848108;29;20033;-75
2023/11/29 03:32:53;;;;;;;0.00;0.00;;;;;;;2.29;90.80;99418.94;4821608;29;20650;-75
2023/11/29 03:35:18;;;;;;;0.00;0.00;;;;;;;2.30;90.65;99417.09;4835918;29;20056;-76
2023/11/29 03:37:44;;;;;;;0.00;0.00;;;;;;;2.39;91.13;99429.16;4814477;29;20029;-75
2023/11/29 03:40:10;;;;;;;0.00;0.00;;;;;;;2.34;90.44;99410.16;4860484;29;20539;-74
2023/11/29 03:42:35;;;;;;;0.00;0.00;;;;;;;2.48;90.68;99416.13;4852082;29;20080;-74
2023/11/29 03:45:02;;;;;;;0.00;0.00;;;;;;;2.43;90.15;99389.84;4860989;29;20552;-73
2023/11/29 03:47:28;;;;;;;0.00;0.00;;;;;;;2.59;90.42;99402.59;4838372;29;20511;-73
2023/11/29 03:49:53;;;;;;;0.00;0.00;;;;;;;2.64;90.46;99398.38;4833779;29;20061;-75
2023/11/29 03:52:19;;;;;;;0.00;0.00;;;;;;;2.81;90.64;99414.66;4838535;29;20036;-74
2023/11/29 03:54:48;;;;;;;0.00;0.00;;;;;;;2.79;90.06;99393.28;4868498;29;20029;-75
2023/11/29 03:57:13;;;;;;;0.00;0.00;;;;;;;2.84;89.90;99393.38;4837504;29;20699;-75
2023/11/29 03:59:38;;;;;;;0.10;0.10;;;;;;;2.88;89.31;99383.72;4855506;29;20058;-76
2023/11/29 04:02:04;;;;;;;0.10;0.10;;;;;;;3.06;89.80;99395.41;4841673;29;20045;-74
2023/11/29 04:04:32;;;;;;;0.00;0.00;;;;;;;2.96;89.25;99369.84;4850663;29;20088;-75
2023/11/29 04:07:03;;;;;;;0.00;0.00;;;;;;;3.05;89.46;99369.44;4861245;29;20045;-75
2023/11/29 04:09:29;;;;;;;0.00;0.00;;;;;;;3.04;89.11;99359.69;4863681;29;20089;-75
2023/11/29 04:11:55;;;;;;;0.00;0.00;;;;;;;3.05;88.65;99351.38;4865121;29;20025;-74
2023/11/29 04:14:20;;;;;;;0.00;0.00;;;;;;;3.23;89.25;99374.66;4857254;29;20493;-73
2023/11/29 04:16:46;;;;;;;0.00;0.00;;;;;;;3.14;89.93;99344.50;4842597;29;20027;-74
2023/11/29 04:19:11;;;;;;;0.00;0.00;;;;;;;3.34;88.79;99375.63;4855230;29;20067;-74
2023/11/29 04:21:37;;;;;;;0.00;0.00;;;;;;;3.36;88.78;99372.69;4843367;29;20034;-74
2023/11/29 04:24:02;;;;;;;0.00;0.00;;;;;;;3.28;89.34;99355.00;4839133;29;20033;-76
2023/11/29 04:26:40;;;;;;;0.00;0.00;;;;;;;3.43;89.59;99362.53;4841475;29;20525;-74
2023/11/29 04:29:07;;;;;;;0.10;0.10;;;;;;;3.49;88.93;99362.38;4858164;29;20133;-74
2023/11/29 04:31:37;;;;;;;0.00;0.00;;;;;;;3.53;89.59;99362.69;4850249;29;20028;-73
2023/11/29 04:34:04;;;;;;;0.00;0.00;;;;;;;3.49;89.24;99356.97;4838722;29;20064;-74
2023/11/29 04:36:30;;;;;;;0.00;0.00;;;;;;;3.50;89.53;99352.38;4844013;29;20021;-75
2023/11/29 04:38:55;;;;;;;0.00;0.00;;;;;;;3.57;88.89;99355.75;4863861;29;20044;-74
2023/11/29 04:41:22;;;;;;;0.00;0.00;;;;;;;3.51;89.75;99347.81;4861581;29;20059;-76
2023/11/29 04:43:48;;;;;;;0.00;0.00;;;;;;;3.40;89.06;99328.72;4817640;29;20034;-75
2023/11/29 04:46:14;;;;;;;0.10;0.10;;;;;;;3.48;89.97;99343.72;4838725;29;20029;-74
2023/11/29 04:48:41;;;;;;;0.00;0.00;;;;;;;3.45;89.78;99344.22;4855101;29;20097;-75
2023/11/29 04:51:07;;;;;;;0.10;0.10;;;;;;;3.33;89.46;99341.59;4854111;29;20040;-76
2023/11/29 04:53:32;;;;;;;0.10;0.10;;;;;;;3.37;89.95;99341.91;4863048;29;20029;-76
2023/11/29 04:55:57;;;;;;;0.00;0.00;;;;;;;3.33;90.27;99341.59;4835483;29;20082;-75
2023/11/29 04:58:23;;;;;;;0.10;0.10;;;;;;;3.34;89.63;99343.19;4832922;29;20392;-75
2023/11/29 05:00:49;;;;;;;0.00;0.00;;;;;;;3.35;90.54;99341.34;4848509;29;20451;-75
2023/11/29 05:03:27;;;;;;;0.00;0.00;;;;;;;3.29;89.87;99335.84;4851706;29;20030;-74
2023/11/29 05:05:52;;;;;;;0.00;0.00;;;;;;;3.36;90.66;99346.50;4854277;29;20020;-74
2023/11/29 05:08:25;;;;;;;0.10;0.10;;;;;;;3.24;90.42;99322.25;4822304;29;20069;-75
2023/11/29 05:10:53;;;;;;;0.00;0.00;;;;;;;3.24;90.56;99324.94;4854379;29;20061;-75
2023/11/29 05:13:19;;;;;;;0.00;0.00;;;;;;;3.10;90.64;99318.22;4831612;29;20033;-75
2023/11/29 05:15:47;;;;;;;0.00;0.00;;;;;;;3.05;90.33;99331.63;4858027;29;20123;-74
2023/11/29 05:18:13;;;;;;;0.00;0.00;;;;;;;3.09;90.14;99346.28;4861766;29;20476;-74
2023/11/29 05:20:39;;;;;;;0.00;0.00;;;;;;;3.02;90.62;99334.81;4869404;29;20029;-76
2023/11/29 05:23:04;;;;;;;0.00;0.00;;;;;;;3.02;90.64;99345.63;4857470;29;20040;-75
2023/11/29 05:25:31;;;;;;;0.00;0.00;;;;;;;3.00;90.10;99347.75;4822102;29;20084;-75
2023/11/29 05:27:56;;;;;;;0.00;0.00;;;;;;;2.89;90.11;99336.78;4845421;29;20468;-75
2023/11/29 05:30:22;;;;;;;0.00;0.00;;;;;;;2.99;90.82;99340.72;4855208;29;20033;-75
2023/11/29 05:32:49;;;;;;;0.00;0.00;;;;;;;2.84;90.47;99322.34;4807165;29;20030;-75
2023/11/29 05:35:14;;;;;;;0.00;0.00;;;;;;;2.90;90.27;99327.59;4835454;29;20037;-75
2023/11/29 05:37:41;;;;;;;0.10;0.10;;;;;;;3.00;89.99;99342.34;4836592;29;20026;-75
2023/11/29 05:40:08;;;;;;;0.00;0.00;;;;;;;2.92;90.86;99336.28;4839530;29;20044;-75
2023/11/29 05:42:44;;;;;;;0.00;0.00;;;;;;;2.83;90.42;99320.72;4845255;29;20025;-74
2023/11/29 05:45:12;;;;;;;0.00;0.00;;;;;;;2.96;90.87;99345.53;4837377;29;20397;-76
2023/11/29 05:47:37;;;;;;;0.00;0.00;;;;;;;2.98;90.82;99339.91;4834153;29;20045;-77
2023/11/29 05:50:03;;;;;;;0.00;0.00;;;;;;;2.91;91.14;99345.44;4835916;29;20034;-75
2023/11/29 05:52:28;;;;;;;0.00;0.00;;;;;;;2.74;91.07;99323.78;4852051;29;20510;-76
2023/11/29 05:54:54;;;;;;;0.00;0.00;;;;;;;2.77;90.96;99344.94;4835782;29;20065;-74
2023/11/29 05:57:19;;;;;;;0.00;0.00;;;;;;;2.64;91.29;99328.19;4850049;29;20038;-75
2023/11/29 05:59:45;;;;;;;0.10;0.10;;;;;;;2.53;91.45;99317.19;4835154;29;20022;-76
2023/11/29 06:02:11;;;;;;;0.00;0.00;;;;;;;2.36;91.13;99302.81;4852233;29;20034;-75
2023/11/29 06:04:39;;;;;;;0.00;0.00;;;;;;;2.42;91.23;99331.53;4850157;29;20031;-75
2023/11/29 06:07:04;;;;;;;0.10;0.10;;;;;;;2.39;91.67;99348.19;4849164;29;20435;-74
2023/11/29 06:09:31;;;;;;;0.00;0.00;;;;;;;2.15;92.24;99326.69;4823708;29;20057;-75
2023/11/29 06:11:59;;;;;;;0.00;0.00;;;;;;;2.08;91.92;99326.78;4831069;29;20070;-76
2023/11/29 06:14:27;;;;;;;0.00;0.00;;;;;;;2.11;92.89;99340.88;4850690;29;20034;-75
2023/11/29 06:16:53;;;;;;;0.00;0.00;;;;;;;1.99;92.47;99327.41;4847668;29;20037;-75
2023/11/29 06:19:20;;;;;;;0.00;0.00;;;;;;;1.92;93.01;99328.34;4810074;29;20030;-74
2023/11/29 06:21:46;;;;;;;0.10;0.10;;;;;;;1.91;93.03;99340.19;4819604;29;20029;-77
2023/11/29 06:24:13;;;;;;;0.00;0.00;;;;;;;1.79;93.12;99328.59;4830434;29;20085;-76
2023/11/29 06:26:40;;;;;;;0.00;0.00;;;;;;;1.80;93.51;99326.72;4817569;29;20034;-76
2023/11/29 06:29:09;;;;;;;0.00;0.00;;;;;;;1.77;93.24;99330.72;4833203;29;20046;-76
2023/11/29 06:31:36;;;;;;;0.00;0.00;;;;;;;1.71;93.70;99328.97;4822963;29;20463;-75
2023/11/29 06:34:02;;;;;;;0.00;0.00;;;;;;;1.67;93.90;99325.91;4843184;29;20461;-75
2023/11/29 06:36:28;;;;;;;0.03;0.03;;;;;;;1.59;94.19;99317.34;4837154;29;20026;-74
2023/11/29 06:38:53;;;;;;;0.00;0.00;;;;;;;1.55;94.02;99317.81;4838781;29;21404;-79
2023/11/29 06:41:19;;;;;;;0.00;0.00;;;;;;;1.51;93.94;99311.25;4820057;29;20469;-77
2023/11/29 06:43:44;;;;;;;0.10;0.10;;;;;;;1.56;94.77;99324.00;4817684;29;20034;-78
2023/11/29 06:46:10;;;;;;;0.00;0.00;;;;;;;1.54;94.42;99321.56;4815955;29;20034;-78
2023/11/29 06:48:36;;;;;;;0.00;0.00;;;;;;;1.48;94.87;99310.91;4834765;29;20035;-79
2023/11/29 06:51:02;;;;;;;0.10;0.10;;;;;;;1.43;95.02;99308.91;4822571;29;20033;-78
2023/11/29 06:53:27;;;;;;;0.00;0.00;;;;;;;1.35;94.83;99296.59;4833826;29;20026;-79
2023/11/29 06:55:55;;;;;;;0.00;0.00;;;;;;;1.10;95.00;99266.38;4836162;29;20102;-76
2023/11/29 06:58:25;;;;;;;0.10;0.10;;;;;;;1.24;95.77;99293.88;4830245;29;20026;-77
2023/11/29 07:00:55;;;;;;;0.00;0.00;;;;;;;1.17;95.80;99283.25;4843080;29;20029;-77
2023/11/29 07:03:20;;;;;;;0.10;0.10;;;;;;;1.20;95.87;99298.94;4839870;29;20040;-77
2023/11/29 07:05:46;;;;;;;0.00;0.00;;;;;;;1.16;95.84;99295.88;4849292;29;20033;-76
2023/11/29 07:08:12;;;;;;;0.10;0.10;;;;;;;1.22;95.84;99308.41;4840354;29;20032;-79
2023/11/29 07:10:37;;;;;;;0.10;0.10;;;;;;;1.19;96.20;99308.88;4836620;29;20046;-78
2023/11/29 07:13:05;;;;;;;0.00;0.00;;;;;;;1.17;95.88;99313.69;4843233;29;20033;-77
2023/11/29 07:15:31;;;;;;;0.00;0.00;;;;;;;1.08;96.60;99307.00;4848632;29;20029;-77
2023/11/29 07:17:56;;;;;;;0.10;0.10;;;;;;;1.01;96.51;99296.31;4855392;29;20045;-77
2023/11/29 07:20:24;;;;;;;0.10;0.10;;;;;;;0.94;96.27;99284.81;4848291;29;20022;-76
2023/11/29 07:22:49;;;;;;;0.00;0.00;;;;;;;1.04;97.00;99308.50;4832683;29;20030;-75
2023/11/29 07:25:17;;;;;;;0.10;0.10;;;;;;;0.97;96.90;99297.81;4845132;29;20063;-75
2023/11/29 07:27:42;;;;;;;0.00;0.00;;;;;;;0.98;97.00;99301.31;4834354;29;20053;-76
2023/11/29 07:30:40;;;;;;;0.00;0.00;;;;;;;0.96;97.39;99300.75;4868191;29;20033;-75
2023/11/29 07:33:06;;;;;;;0.00;0.00;;;;;;;0.79;97.04;99266.41;4845123;29;20115;-75
2023/11/29 07:35:33;;;;;;;0.00;0.00;;;;;;;0.97;97.30;99299.69;4828740;29;20150;-75
2023/11/29 07:37:59;;;;;;;0.00;0.00;;;;;;;0.95;97.46;99285.63;4850380;29;20054;-75
2023/11/29 07:40:24;;;;;;;0.10;0.10;;;;;;;1.00;97.53;99286.59;4847311;29;20033;-76
2023/11/29 07:42:50;;;;;;;0.10;0.10;;;;;;;0.88;97.85;99275.00;4843863;29;20061;-75
2023/11/29 07:45:15;;;;;;;0.10;0.10;;;;;;;0.96;97.82;99290.78;4845365;29;20038;-75
2023/11/29 07:47:41;;;;;;;0.00;0.00;;;;;;;0.89;97.46;99276.59;4838083;29;20040;-76
2023/11/29 07:50:07;;;;;;;0.10;0.10;;;;;;;0.77;97.36;99263.13;4865937;29;20040;-76
2023/11/29 07:52:35;;;;;;;0.05;0.05;;;;;;;1.03;97.25;99304.97;4873250;29;20037;-76
2023/11/29 07:55:05;;;;;;;0.00;0.00;;;;;;;0.92;97.16;99286.09;4839396;29;20124;-77
2023/11/29 07:57:31;;;;;;;0.10;0.10;;;;;;;0.89;97.01;99283.88;4839021;29;20195;-77
2023/11/29 07:59:56;;;;;;;0.00;0.00;;;;;;;1.05;97.83;99312.81;4822915;29;20464;-76
2023/11/29 08:02:21;;;;;;;0.00;0.00;;;;;;;1.04;97.37;99301.22;4827426;29;20088;-76
2023/11/29 08:04:47;;;;;;;0.00;0.00;;;;;;;1.07;97.59;99299.97;4835132;29;20037;-75
2023/11/29 08:07:12;;;;;;;0.00;0.00;;;;;;;1.18;97.48;99312.63;4835155;29;20503;-77
2023/11/29 08:09:38;;;;;;;0.00;0.00;;;;;;;1.18;97.21;99309.94;4841079;29;20083;-76
2023/11/29 08:12:03;;;;;;;0.10;0.10;;;;;;;1.25;96.86;99317.88;4830056;29;20044;-75
2023/11/29 08:14:31;;;;;;;0.10;0.10;;;;;;;1.32;97.18;99329.38;4832888;29;20108;-76
2023/11/29 08:16:59;;;;;;;0.00;0.00;;;;;;;1.34;97.12;99307.59;4838489;29;20119;-76
2023/11/29 08:19:25;;;;;;;0.00;0.00;;;;;;;1.48;96.99;99311.72;4854509;29;20404;-77
2023/11/29 08:21:50;;;;;;;0.10;0.10;;;;;;;1.42;96.95;99274.09;4834809;29;20040;-76
2023/11/29 08:24:16;;;;;;;0.10;0.10;;;;;;;1.64;97.13;99285.13;4846129;29;20044;-75
2023/11/29 08:26:41;;;;;;;0.00;0.00;;;;;;;1.76;96.45;99291.31;4842431;29;20112;-76
2023/11/29 08:29:06;;;;;;;0.00;0.00;;;;;;;1.90;96.12;99289.22;4836456;29;20544;-76
2023/11/29 08:31:32;;;;;;;0.00;0.00;;;;;;;2.05;95.95;99294.09;4833245;29;20044;-75
2023/11/29 08:33:57;;;;;;;0.10;0.10;;;;;;;2.19;96.09;99290.09;4834412;29;20120;-76
2023/11/29 08:36:23;;;;;;;0.00;0.00;;;;;;;2.29;95.97;99283.25;4834664;29;20040;-76
2023/11/29 08:38:51;;;;;;;0.00;0.00;;;;;;;2.56;95.80;99305.91;4850200;29;20021;-75
2023/11/29 08:41:17;;;;;;;0.00;0.00;;;;;;;2.74;95.48;99306.78;4831897;29;20037;-76
2023/11/29 08:43:42;;;;;;;0.00;0.00;;;;;;;2.85;95.10;99308.59;4839939;29;20041;-75
2023/11/29 08:46:08;;;;;;;0.00;0.00;;;;;;;2.87;94.75;99294.88;4840818;29;20037;-76
2023/11/29 08:48:33;;;;;;;0.00;0.00;;;;;;;2.97;93.89;99306.66;4839332;29;20495;-75
2023/11/29 08:50:58;;;;;;;0.00;0.00;;;;;;;3.00;94.30;99288.34;4834881;29;20203;-76
2023/11/29 08:53:24;;;;;;;0.00;0.00;;;;;;;3.26;94.27;99303.91;4843970;29;20033;-76
2023/11/29 08:55:49;;;;;;;0.10;0.10;;;;;;;3.51;94.73;99293.75;4839491;29;20395;-76
2023/11/29 08:58:17;;;;;;;0.00;0.00;;;;;;;3.79;94.19;99295.50;4830055;29;20033;-76
2023/11/29 09:00:42;;;;;;;0.00;0.00;;;;;;;4.08;92.70;99306.19;4840501;29;20025;-75
2023/11/29 09:03:09;;;;;;;0.00;0.00;;;;;;;4.23;92.26;99298.25;4821282;29;20090;-76
2023/11/29 09:05:35;;;;;;;0.10;0.10;;;;;;;4.40;91.73;99294.66;4831724;29;20119;-77
2023/11/29 09:08:00;;;;;;;0.00;0.00;;;;;;;4.66;90.53;99304.72;4848169;29;20429;-76
2023/11/29 09:10:26;;;;;;;0.00;0.00;;;;;;;4.96;89.21;99302.56;4868157;29;20029;-75
2023/11/29 09:12:52;;;;;;;0.10;0.10;;;;;;;5.14;88.83;99280.53;4858040;29;20029;-77
2023/11/29 09:15:17;;;;;;;0.10;0.10;;;;;;;5.50;88.42;99285.38;4816276;29;20029;-75
2023/11/29 09:17:45;;;;;;;0.00;0.00;;;;;;;5.82;87.84;99268.25;4840115;29;20057;-75
2023/11/29 09:20:11;;;;;;;0.00;0.00;;;;;;;6.28;85.62;99263.06;4835872;29;21121;-75
2023/11/29 09:22:37;;;;;;;0.00;0.00;;;;;;;6.69;85.10;99279.47;4829664;29;20029;-75
2023/11/29 09:25:03;;;;;;;0.00;0.00;;;;;;;7.02;83.51;99271.91;4834204;29;20042;-76
2023/11/29 09:27:29;;;;;;;0.00;0.00;;;;;;;7.28;82.44;99258.31;4860436;29;20021;-75
2023/11/29 09:29:54;;;;;;;0.00;0.00;;;;;;;7.59;82.00;99263.72;4848700;29;20039;-76
2023/11/29 09:32:20;;;;;;;0.00;0.00;;;;;;;7.92;80.93;99261.50;4841061;29;20036;-76
2023/11/29 09:34:46;;;;;;;0.00;0.00;;;;;;;8.39;80.46;99252.03;4847124;29;20025;-77
2023/11/29 09:37:11;;;;;;;0.00;0.00;;;;;;;9.05;78.47;99266.38;4832871;29;20041;-76
2023/11/29 09:39:37;;;;;;;0.00;0.00;;;;;;;9.74;76.64;99258.94;4825534;29;20132;-76
2023/11/29 09:42:03;;;;;;;0.00;0.00;;;;;;;10.42;75.06;99261.75;4846892;29;20021;-76
2023/11/29 09:44:30;;;;;;;0.00;0.00;;;;;;;10.81;72.57;99247.78;4836487;29;20423;-76
2023/11/29 09:46:57;;;;;;;0.00;0.00;;;;;;;10.72;70.68;99240.53;4830859;29;20025;-75
2023/11/29 09:49:23;;;;;;;0.00;0.00;;;;;;;10.31;71.16;99242.72;4856039;29;20112;-76
2023/11/29 09:51:49;;;;;;;0.00;0.00;;;;;;;10.04;72.03;99253.44;4849506;29;20111;-75
2023/11/29 09:54:15;;;;;;;0.00;0.00;;;;;;;9.79;73.00;99258.06;4851940;29;20488;-76
2023/11/29 09:56:41;;;;;;;0.00;0.00;;;;;;;9.66;72.63;99258.75;4859645;29;20037;-76
2023/11/29 09:59:07;;;;;;;0.00;0.00;;;;;;;9.22;71.79;99261.31;4866126;29;20021;-76
2023/11/29 10:01:45;;;;;;;0.00;0.00;;;;;;;8.71;70.64;99258.97;4854625;29;20052;-76
2023/11/29 10:04:11;;;;;;;0.00;0.00;;;;;;;8.31;70.37;99252.59;4855802;29;20125;-76
2023/11/29 10:06:36;;;;;;;0.00;0.00;;;;;;;8.29;70.59;99255.59;4841320;29;20723;-76
2023/11/29 10:09:11;;;;;;;0.00;0.00;;;;;;;8.21;70.80;99270.63;4848192;29;20037;-76
2023/11/29 10:11:37;;;;;;;0.00;0.00;;;;;;;8.11;71.77;99254.31;4841058;29;20495;-75
2023/11/29 10:14:05;;;;;;;0.00;0.00;;;;;;;8.29;72.08;99273.88;4863876;29;20033;-77
2023/11/29 10:16:31;;;;;;;0.00;0.00;;;;;;;8.34;71.86;99257.53;4863458;29;20033;-76
2023/11/29 10:18:58;;;;;;;0.00;0.00;;;;;;;8.51;71.59;99271.63;4841150;29;20033;-76
2023/11/29 10:21:25;;;;;;;0.00;0.00;;;;;;;8.47;71.30;99267.84;4848649;29;20041;-77
2023/11/29 10:23:50;;;;;;;0.00;0.00;;;;;;;8.34;70.86;99261.03;4831787;29;20678;-76
2023/11/29 10:26:16;;;;;;;0.00;0.00;;;;;;;8.28;71.41;99264.06;4820290;29;20048;-75
2023/11/29 10:28:41;;;;;;;0.00;0.00;;;;;;;8.12;71.67;99250.53;4845386;29;20142;-77
2023/11/29 10:31:08;;;;;;;0.00;0.00;;;;;;;8.08;71.71;99254.88;4852825;29;20277;-75
2023/11/29 10:33:33;;;;;;;0.00;0.00;;;;;;;8.14;71.58;99253.78;4823014;29;20104;-76
2023/11/29 10:36:01;;;;;;;0.00;0.00;;;;;;;8.34;71.42;99262.97;4850741;29;20033;-76
2023/11/29 10:38:28;;;;;;;0.00;0.00;;;;;;;8.59;71.58;99274.88;4853813;29;20091;-76
2023/11/29 10:40:59;;;;;;;0.00;0.00;;;;;;;8.81;70.43;99269.00;4849264;29;20056;-76
2023/11/29 10:43:28;;;;;;;0.00;0.00;;;;;;;8.72;69.94;99257.88;4862317;29;20029;-76
2023/11/29 10:45:59;;;;;;;0.00;0.00;;;;;;;8.81;70.26;99256.19;4838558;29;20018;-76
2023/11/29 10:48:27;;;;;;;0.00;0.00;;;;;;;8.97;69.71;99269.72;4847088;29;20034;-77
2023/11/29 10:50:53;;;;;;;0.00;0.00;;;;;;;8.94;69.50;99248.47;4832872;29;20064;-77
2023/11/29 10:53:19;;;;;;;0.00;0.00;;;;;;;9.09;69.93;99256.53;4866408;29;20050;-76
2023/11/29 10:55:47;;;;;;;0.00;0.00;;;;;;;9.17;68.98;99252.38;4825337;29;20044;-77
2023/11/29 10:58:12;;;;;;;0.00;0.00;;;;;;;9.18;68.98;99254.81;4822986;29;20033;-76
2023/11/29 11:00:40;;;;;;;0.00;0.00;;;;;;;9.09;68.65;99240.16;4858380;29;20021;-77
2023/11/29 11:03:08;;;;;;;0.10;0.10;;;;;;;8.95;69.12;99233.72;4840162;29;20030;-76
2023/11/29 11:05:33;;;;;;;0.10;0.10;;;;;;;8.89;68.70;99238.41;4856905;29;20035;-76
2023/11/29 11:07:59;;;;;;;0.00;0.00;;;;;;;8.82;69.04;99225.09;4853915;29;20033;-76
2023/11/29 11:10:26;;;;;;;0.00;0.00;;;;;;;8.72;69.17;99236.06;4816484;29;20711;-76
2023/11/29 11:12:53;;;;;;;0.00;0.00;;;;;;;8.66;69.26;99224.41;4841851;29;20061;-76
2023/11/29 11:15:25;;;;;;;0.00;0.00;;;;;;;8.71;69.23;99234.44;4831902;29;20038;-75
2023/11/29 11:18:11;;;;;;;0.00;0.00;;;;;;;8.79;69.16;99228.41;4845374;29;20033;-76
2023/11/29 11:20:48;;;;;;;0.00;0.00;;;;;;;8.92;69.53;99229.66;4847202;29;20109;-76
2023/11/29 11:23:20;;;;;;;0.00;0.00;;;;;;;9.13;69.05;99219.41;4849663;29;20452;-75
2023/11/29 11:25:45;;;;;;;0.00;0.00;;;;;;;9.28;69.04;99209.47;4863887;29;20032;-76
2023/11/29 11:28:37;;;;;;;0.00;0.00;;;;;;;9.72;68.40;99211.19;4835081;29;20413;-76
2023/11/29 11:31:12;;;;;;;0.00;0.00;;;;;;;10.27;67.39;99203.41;4837795;29;20121;-76
2023/11/29 11:33:55;;;;;;;0.00;0.00;;;;;;;11.03;65.65;99199.06;4839802;29;20034;-75
2023/11/29 11:36:23;;;;;;;0.00;0.00;;;;;;;11.50;64.20;99200.69;4843116;29;20041;-76
2023/11/29 11:38:50;;;;;;;0.00;0.00;;;;;;;12.52;63.09;99201.69;4843591;29;20029;-76
2023/11/29 11:41:16;;;;;;;0.00;0.00;;;;;;;13.41;60.15;99183.59;4832051;29;20034;-77